sensor_id;sensor_type;location;lat;lon;timestamp;temperature;humidity
24207;DHT22;12351;52.284;9.160;2023-08-01T00:02:25;18.20;99.90
24207;DHT22;12351;52.284;9.160;2023-08-01T00:05:16;18.20;99.90
24207;DHT22;12351;52.284;9.160;2023-08-01T00:08:06;18.20;99.90
24207;DHT22;12351;52.284;9.160;2023-08-01T00:10:53;18.20;99.90
24207;DHT22;12351;52.284;9.160;2023-08-01T00:13:45;18.20;99.90
24207;DHT22;12351;52.284;9.160;2023-08-01T00:16:33;18.20;99.90
24207;DHT22;12351;52.284;9.160;2023-08-01T00:19:23;18.20;99.90
24207;DHT22;12351;52.284;9.160;2023-08-01T00:22:12;18.20;99.90
24207;DHT22;12351;52.284;9.160;2023-08-01T00:25:02;18.20;99.90
24207;DHT22;12351;52.284;9.160;2023-08-01T00:27:53;18.20;99.90
24207;DHT22;12351;52.284;9.160;2023-08-01T00:30:42;18.20;99.90
24207;DHT22;12351;52.284;9.160;2023-08-01T00:33:35;18.20;99.90
24207;DHT22;12351;52.284;9.160;2023-08-01T00:36:24;18.20;99.90
24207;DHT22;12351;52.284;9.160;2023-08-01T00:39:11;18.20;99.90
24207;DHT22;12351;52.284;9.160;2023-08-01T00:42:02;18.10;99.90
24207;DHT22;12351;52.284;9.160;2023-08-01T00:44:54;18.10;99.90
24207;DHT22;12351;52.284;9.160;2023-08-01T00:47:40;18.10;99.90
24207;DHT22;12351;52.284;9.160;2023-08-01T00:50:32;18.10;99.90
24207;DHT22;12351;52.284;9.160;2023-08-01T00:53:20;18.00;99.90
24207;DHT22;12351;52.284;9.160;2023-08-01T00:56:10;18.10;99.90
24207;DHT22;12351;52.284;9.160;2023-08-01T00:59:02;18.10;99.90
24207;DHT22;12351;52.284;9.160;2023-08-01T01:01:51;18.10;99.90
24207;DHT22;12351;52.284;9.160;2023-08-01T01:04:43;18.00;99.90
24207;DHT22;12351;52.284;9.160;2023-08-01T01:07:31;18.10;99.90
24207;DHT22;12351;52.284;9.160;2023-08-01T01:10:24;18.00;99.90
24207;DHT22;12351;52.284;9.160;2023-08-01T01:13:14;17.90;99.90
24207;DHT22;12351;52.284;9.160;2023-08-01T01:16:04;18.00;99.90
24207;DHT22;12351;52.284;9.160;2023-08-01T01:18:53;18.00;99.90
24207;DHT22;12351;52.284;9.160;2023-08-01T01:21:45;17.90;99.90
24207;DHT22;12351;52.284;9.160;2023-08-01T01:24:38;18.00;99.90
24207;DHT22;12351;52.284;9.160;2023-08-01T01:27:30;18.00;99.90
24207;DHT22;12351;52.284;9.160;2023-08-01T01:30:21;18.00;99.90
24207;DHT22;12351;52.284;9.160;2023-08-01T01:33:12;18.00;99.90
24207;DHT22;12351;52.284;9.160;2023-08-01T01:36:05;17.90;99.90
24207;DHT22;12351;52.284;9.160;2023-08-01T01:38:53;17.90;99.90
24207;DHT22;12351;52.284;9.160;2023-08-01T01:41:40;18.00;99.90
24207;DHT22;12351;52.284;9.160;2023-08-01T01:44:32;18.00;99.90
24207;DHT22;12351;52.284;9.160;2023-08-01T01:47:21;18.00;99.90
24207;DHT22;12351;52.284;9.160;2023-08-01T01:50:11;18.00;99.90
24207;DHT22;12351;52.284;9.160;2023-08-01T01:52:59;17.90;99.90
24207;DHT22;12351;52.284;9.160;2023-08-01T01:55:50;17.90;99.90
24207;DHT22;12351;52.284;9.160;2023-08-01T01:58:40;17.90;99.90
24207;DHT22;12351;52.284;9.160;2023-08-01T02:01:29;17.90;99.90
24207;DHT22;12351;52.284;9.160;2023-08-01T02:04:20;17.80;99.90
24207;DHT22;12351;52.284;9.160;2023-08-01T02:07:10;17.80;99.90
24207;DHT22;12351;52.284;9.160;2023-08-01T02:10:02;17.80;99.90
24207;DHT22;12351;52.284;9.160;2023-08-01T02:12:55;17.80;99.90
24207;DHT22;12351;52.284;9.160;2023-08-01T02:15:45;17.80;99.90
24207;DHT22;12351;52.284;9.160;2023-08-01T02:18:36;17.70;99.90
24207;DHT22;12351;52.284;9.160;2023-08-01T02:21:25;17.70;99.90
24207;DHT22;12351;52.284;9.160;2023-08-01T02:24:14;17.70;99.90
24207;DHT22;12351;52.284;9.160;2023-08-01T02:27:05;17.70;99.90
24207;DHT22;12351;52.284;9.160;2023-08-01T02:29:58;17.60;99.90
24207;DHT22;12351;52.284;9.160;2023-08-01T02:32:48;17.60;99.90
24207;DHT22;12351;52.284;9.160;2023-08-01T02:35:39;17.60;99.90
24207;DHT22;12351;52.284;9.160;2023-08-01T02:38:29;17.70;99.90
24207;DHT22;12351;52.284;9.160;2023-08-01T02:41:20;17.60;99.90
24207;DHT22;12351;52.284;9.160;2023-08-01T02:44:12;17.60;99.90
24207;DHT22;12351;52.284;9.160;2023-08-01T02:47:01;17.60;99.90
24207;DHT22;12351;52.284;9.160;2023-08-01T02:49:53;17.50;99.90
24207;DHT22;12351;52.284;9.160;2023-08-01T02:52:42;17.60;99.90
24207;DHT22;12351;52.284;9.160;2023-08-01T02:55:32;17.60;99.90
24207;DHT22;12351;52.284;9.160;2023-08-01T02:58:21;17.60;99.90
24207;DHT22;12351;52.284;9.160;2023-08-01T03:01:12;17.60;99.90
24207;DHT22;12351;52.284;9.160;2023-08-01T03:04:03;17.60;99.90
24207;DHT22;12351;52.284;9.160;2023-08-01T03:06:57;17.60;99.90
24207;DHT22;12351;52.284;9.160;2023-08-01T03:09:47;17.60;99.90
24207;DHT22;12351;52.284;9.160;2023-08-01T03:12:40;17.60;99.90
24207;DHT22;12351;52.284;9.160;2023-08-01T03:15:30;17.50;99.90
24207;DHT22;12351;52.284;9.160;2023-08-01T03:18:22;17.60;99.90
24207;DHT22;12351;52.284;9.160;2023-08-01T03:21:12;17.60;99.90
24207;DHT22;12351;52.284;9.160;2023-08-01T03:24:03;17.60;99.90
24207;DHT22;12351;52.284;9.160;2023-08-01T03:26:54;17.60;99.90
24207;DHT22;12351;52.284;9.160;2023-08-01T03:29:44;17.50;99.90
24207;DHT22;12351;52.284;9.160;2023-08-01T03:32:33;17.60;99.90
24207;DHT22;12351;52.284;9.160;2023-08-01T03:35:23;17.60;99.90
24207;DHT22;12351;52.284;9.160;2023-08-01T03:38:13;17.60;99.90
24207;DHT22;12351;52.284;9.160;2023-08-01T03:41:02;17.60;99.90
24207;DHT22;12351;52.284;9.160;2023-08-01T03:43:52;17.60;99.90
24207;DHT22;12351;52.284;9.160;2023-08-01T03:46:44;17.50;99.90
24207;DHT22;12351;52.284;9.160;2023-08-01T03:49:33;17.50;99.90
24207;DHT22;12351;52.284;9.160;2023-08-01T03:52:27;17.60;99.90
24207;DHT22;12351;52.284;9.160;2023-08-01T03:55:16;17.50;99.90
24207;DHT22;12351;52.284;9.160;2023-08-01T03:58:05;17.50;99.90
24207;DHT22;12351;52.284;9.160;2023-08-01T04:00:55;17.50;99.90
24207;DHT22;12351;52.284;9.160;2023-08-01T04:03:46;17.50;99.90
24207;DHT22;12351;52.284;9.160;2023-08-01T04:06:35;17.50;99.90
24207;DHT22;12351;52.284;9.160;2023-08-01T04:09:24;17.40;99.90
24207;DHT22;12351;52.284;9.160;2023-08-01T04:12:15;17.40;99.90
24207;DHT22;12351;52.284;9.160;2023-08-01T04:15:05;17.40;99.90
24207;DHT22;12351;52.284;9.160;2023-08-01T04:17:56;17.40;99.90
24207;DHT22;12351;52.284;9.160;2023-08-01T04:20:46;17.40;99.90
24207;DHT22;12351;52.284;9.160;2023-08-01T04:23:38;17.50;99.90
24207;DHT22;12351;52.284;9.160;2023-08-01T04:26:27;17.50;99.90
24207;DHT22;12351;52.284;9.160;2023-08-01T04:29:17;17.50;99.90
24207;DHT22;12351;52.284;9.160;2023-08-01T04:32:08;17.50;99.90
24207;DHT22;12351;52.284;9.160;2023-08-01T04:34:56;17.40;99.90
24207;DHT22;12351;52.284;9.160;2023-08-01T04:37:46;17.40;99.90
24207;DHT22;12351;52.284;9.160;2023-08-01T04:40:37;17.40;99.90
24207;DHT22;12351;52.284;9.160;2023-08-01T04:43:26;17.40;99.90
24207;DHT22;12351;52.284;9.160;2023-08-01T04:46:19;17.40;99.90
24207;DHT22;12351;52.284;9.160;2023-08-01T04:49:12;17.40;99.90
24207;DHT22;12351;52.284;9.160;2023-08-01T04:52:01;17.40;99.90
24207;DHT22;12351;52.284;9.160;2023-08-01T04:54:50;17.40;99.90
24207;DHT22;12351;52.284;9.160;2023-08-01T04:57:39;17.40;99.90
24207;DHT22;12351;52.284;9.160;2023-08-01T05:00:29;17.40;99.90
24207;DHT22;12351;52.284;9.160;2023-08-01T05:03:19;17.30;99.90
24207;DHT22;12351;52.284;9.160;2023-08-01T05:06:09;17.30;99.90
24207;DHT22;12351;52.284;9.160;2023-08-01T05:09:01;17.30;99.90
24207;DHT22;12351;52.284;9.160;2023-08-01T05:11:49;17.30;99.90
24207;DHT22;12351;52.284;9.160;2023-08-01T05:14:40;17.30;99.90
24207;DHT22;12351;52.284;9.160;2023-08-01T05:17:30;17.40;99.90
24207;DHT22;12351;52.284;9.160;2023-08-01T05:20:23;17.40;99.90
24207;DHT22;12351;52.284;9.160;2023-08-01T05:23:14;17.40;99.90
24207;DHT22;12351;52.284;9.160;2023-08-01T05:26:03;17.40;99.90
24207;DHT22;12351;52.284;9.160;2023-08-01T05:28:53;17.50;99.90
24207;DHT22;12351;52.284;9.160;2023-08-01T05:31:45;17.50;99.90
24207;DHT22;12351;52.284;9.160;2023-08-01T05:34:39;17.50;99.90
24207;DHT22;12351;52.284;9.160;2023-08-01T05:37:28;17.40;99.90
24207;DHT22;12351;52.284;9.160;2023-08-01T05:40:18;17.40;99.90
24207;DHT22;12351;52.284;9.160;2023-08-01T05:43:11;17.40;99.90
24207;DHT22;12351;52.284;9.160;2023-08-01T05:46:00;17.30;99.90
24207;DHT22;12351;52.284;9.160;2023-08-01T05:48:49;17.30;99.90
24207;DHT22;12351;52.284;9.160;2023-08-01T05:51:39;17.30;99.90
24207;DHT22;12351;52.284;9.160;2023-08-01T05:54:31;17.30;99.90
24207;DHT22;12351;52.284;9.160;2023-08-01T05:57:21;17.30;99.90
24207;DHT22;12351;52.284;9.160;2023-08-01T06:00:10;17.30;99.90
24207;DHT22;12351;52.284;9.160;2023-08-01T06:03:01;17.30;99.90
24207;DHT22;12351;52.284;9.160;2023-08-01T06:05:55;17.30;99.90
24207;DHT22;12351;52.284;9.160;2023-08-01T06:08:44;17.30;99.90
24207;DHT22;12351;52.284;9.160;2023-08-01T06:11:34;17.30;99.90
24207;DHT22;12351;52.284;9.160;2023-08-01T06:14:25;17.40;99.90
24207;DHT22;12351;52.284;9.160;2023-08-01T06:17:16;17.40;99.90
24207;DHT22;12351;52.284;9.160;2023-08-01T06:20:07;17.40;99.90
24207;DHT22;12351;52.284;9.160;2023-08-01T06:23:01;17.40;99.90
24207;DHT22;12351;52.284;9.160;2023-08-01T06:25:50;17.40;99.90
24207;DHT22;12351;52.284;9.160;2023-08-01T06:28:40;17.50;99.90
24207;DHT22;12351;52.284;9.160;2023-08-01T06:31:31;17.50;99.90
24207;DHT22;12351;52.284;9.160;2023-08-01T06:34:23;17.50;99.90
24207;DHT22;12351;52.284;9.160;2023-08-01T06:37:13;17.50;99.90
24207;DHT22;12351;52.284;9.160;2023-08-01T06:40:02;17.50;99.90
24207;DHT22;12351;52.284;9.160;2023-08-01T06:42:52;17.60;99.90
24207;DHT22;12351;52.284;9.160;2023-08-01T06:45:44;17.60;99.90
24207;DHT22;12351;52.284;9.160;2023-08-01T06:48:34;17.50;99.90
24207;DHT22;12351;52.284;9.160;2023-08-01T06:51:26;17.50;99.90
24207;DHT22;12351;52.284;9.160;2023-08-01T06:54:15;17.50;99.90
24207;DHT22;12351;52.284;9.160;2023-08-01T06:57:06;17.60;99.90
24207;DHT22;12351;52.284;9.160;2023-08-01T06:59:57;17.60;99.90
24207;DHT22;12351;52.284;9.160;2023-08-01T07:02:48;17.60;99.90
24207;DHT22;12351;52.284;9.160;2023-08-01T07:05:39;17.50;99.90
24207;DHT22;12351;52.284;9.160;2023-08-01T07:08:29;17.50;99.90
24207;DHT22;12351;52.284;9.160;2023-08-01T07:11:19;17.60;99.90
24207;DHT22;12351;52.284;9.160;2023-08-01T07:14:07;17.60;99.90
24207;DHT22;12351;52.284;9.160;2023-08-01T07:16:58;17.60;99.90
24207;DHT22;12351;52.284;9.160;2023-08-01T07:19:47;17.60;99.90
24207;DHT22;12351;52.284;9.160;2023-08-01T07:22:36;17.60;99.90
24207;DHT22;12351;52.284;9.160;2023-08-01T07:25:28;17.70;99.90
24207;DHT22;12351;52.284;9.160;2023-08-01T07:28:16;17.80;99.90
24207;DHT22;12351;52.284;9.160;2023-08-01T07:31:07;17.80;99.90
24207;DHT22;12351;52.284;9.160;2023-08-01T07:33:56;17.80;99.90
24207;DHT22;12351;52.284;9.160;2023-08-01T07:36:45;17.90;99.90
24207;DHT22;12351;52.284;9.160;2023-08-01T07:39:35;17.80;99.90
24207;DHT22;12351;52.284;9.160;2023-08-01T07:42:29;17.90;99.90
24207;DHT22;12351;52.284;9.160;2023-08-01T07:45:18;17.90;99.90
24207;DHT22;12351;52.284;9.160;2023-08-01T07:48:09;18.00;99.90
24207;DHT22;12351;52.284;9.160;2023-08-01T07:50:58;17.90;99.90
24207;DHT22;12351;52.284;9.160;2023-08-01T07:53:45;17.80;99.90
24207;DHT22;12351;52.284;9.160;2023-08-01T07:56:36;17.80;99.90
24207;DHT22;12351;52.284;9.160;2023-08-01T07:59:25;17.90;99.90
24207;DHT22;12351;52.284;9.160;2023-08-01T08:02:17;17.90;99.90
24207;DHT22;12351;52.284;9.160;2023-08-01T08:05:10;18.00;99.90
24207;DHT22;12351;52.284;9.160;2023-08-01T08:08:00;18.00;99.90
24207;DHT22;12351;52.284;9.160;2023-08-01T08:10:50;18.00;99.90
24207;DHT22;12351;52.284;9.160;2023-08-01T08:13:41;17.90;99.90
24207;DHT22;12351;52.284;9.160;2023-08-01T08:16:30;17.90;99.90
24207;DHT22;12351;52.284;9.160;2023-08-01T08:19:23;18.00;99.90
24207;DHT22;12351;52.284;9.160;2023-08-01T08:22:13;18.10;99.90
24207;DHT22;12351;52.284;9.160;2023-08-01T08:25:04;18.20;99.90
24207;DHT22;12351;52.284;9.160;2023-08-01T08:27:53;18.20;99.90
24207;DHT22;12351;52.284;9.160;2023-08-01T08:30:44;18.30;99.90
24207;DHT22;12351;52.284;9.160;2023-08-01T08:33:34;18.20;99.90
24207;DHT22;12351;52.284;9.160;2023-08-01T08:36:22;18.30;99.90
24207;DHT22;12351;52.284;9.160;2023-08-01T08:39:12;18.40;99.90
24207;DHT22;12351;52.284;9.160;2023-08-01T08:42:02;18.50;99.90
24207;DHT22;12351;52.284;9.160;2023-08-01T08:44:54;18.60;99.90
24207;DHT22;12351;52.284;9.160;2023-08-01T08:47:44;18.80;99.90
24207;DHT22;12351;52.284;9.160;2023-08-01T08:50:35;18.70;99.90
24207;DHT22;12351;52.284;9.160;2023-08-01T08:53:22;18.60;99.90
24207;DHT22;12351;52.284;9.160;2023-08-01T08:56:12;18.60;99.90
24207;DHT22;12351;52.284;9.160;2023-08-01T08:59:02;18.70;99.90
24207;DHT22;12351;52.284;9.160;2023-08-01T09:01:54;18.60;99.90
24207;DHT22;12351;52.284;9.160;2023-08-01T09:04:44;18.40;99.90
24207;DHT22;12351;52.284;9.160;2023-08-01T09:07:34;18.30;99.90
24207;DHT22;12351;52.284;9.160;2023-08-01T09:10:27;18.30;99.90
24207;DHT22;12351;52.284;9.160;2023-08-01T09:13:15;18.40;99.90
24207;DHT22;12351;52.284;9.160;2023-08-01T09:16:06;18.50;99.90
24207;DHT22;12351;52.284;9.160;2023-08-01T09:18:59;18.50;99.90
24207;DHT22;12351;52.284;9.160;2023-08-01T09:21:49;18.50;99.90
24207;DHT22;12351;52.284;9.160;2023-08-01T09:24:50;18.50;99.90
24207;DHT22;12351;52.284;9.160;2023-08-01T09:27:32;18.50;99.90
24207;DHT22;12351;52.284;9.160;2023-08-01T09:30:21;18.50;99.90
24207;DHT22;12351;52.284;9.160;2023-08-01T09:33:13;18.50;99.90
24207;DHT22;12351;52.284;9.160;2023-08-01T09:36:04;18.60;99.90
24207;DHT22;12351;52.284;9.160;2023-08-01T09:41:45;18.50;99.90
24207;DHT22;12351;52.284;9.160;2023-08-01T09:44:34;18.50;99.90
24207;DHT22;12351;52.284;9.160;2023-08-01T09:47:35;18.50;99.90
24207;DHT22;12351;52.284;9.160;2023-08-01T09:50:20;18.30;99.90
24207;DHT22;12351;52.284;9.160;2023-08-01T09:53:10;18.40;99.90
24207;DHT22;12351;52.284;9.160;2023-08-01T09:56:01;18.40;99.90
24207;DHT22;12351;52.284;9.160;2023-08-01T09:58:55;18.40;99.90
24207;DHT22;12351;52.284;9.160;2023-08-01T10:01:47;18.40;99.90
24207;DHT22;12351;52.284;9.160;2023-08-01T10:04:36;18.40;99.90
24207;DHT22;12351;52.284;9.160;2023-08-01T10:07:29;18.50;99.90
24207;DHT22;12351;52.284;9.160;2023-08-01T10:10:18;18.50;99.90
24207;DHT22;12351;52.284;9.160;2023-08-01T10:13:08;18.60;99.90
24207;DHT22;12351;52.284;9.160;2023-08-01T10:16:01;18.70;99.90
24207;DHT22;12351;52.284;9.160;2023-08-01T10:18:51;18.80;99.90
24207;DHT22;12351;52.284;9.160;2023-08-01T10:21:43;18.70;99.90
24207;DHT22;12351;52.284;9.160;2023-08-01T10:24:33;18.70;99.90
24207;DHT22;12351;52.284;9.160;2023-08-01T10:27:25;18.60;99.90
24207;DHT22;12351;52.284;9.160;2023-08-01T10:30:25;18.70;99.90
24207;DHT22;12351;52.284;9.160;2023-08-01T10:33:07;18.60;99.90
24207;DHT22;12351;52.284;9.160;2023-08-01T10:35:57;18.80;99.90
24207;DHT22;12351;52.284;9.160;2023-08-01T10:41:40;18.70;99.90
24207;DHT22;12351;52.284;9.160;2023-08-01T10:44:30;18.70;99.90
24207;DHT22;12351;52.284;9.160;2023-08-01T10:53:06;18.50;99.90
24207;DHT22;12351;52.284;9.160;2023-08-01T10:55:53;18.50;99.90
24207;DHT22;12351;52.284;9.160;2023-08-01T10:58:47;18.50;99.90
24207;DHT22;12351;52.284;9.160;2023-08-01T11:01:43;18.40;99.90
24207;DHT22;12351;52.284;9.160;2023-08-01T11:04:28;18.30;99.90
24207;DHT22;12351;52.284;9.160;2023-08-01T11:07:17;18.30;99.90
24207;DHT22;12351;52.284;9.160;2023-08-01T11:10:10;18.10;99.90
24207;DHT22;12351;52.284;9.160;2023-08-01T11:13:01;18.00;99.90
24207;DHT22;12351;52.284;9.160;2023-08-01T11:15:53;17.90;99.90
24207;DHT22;12351;52.284;9.160;2023-08-01T11:18:45;17.90;99.90
24207;DHT22;12351;52.284;9.160;2023-08-01T11:21:34;18.00;99.90
24207;DHT22;12351;52.284;9.160;2023-08-01T11:24:23;18.00;99.90
24207;DHT22;12351;52.284;9.160;2023-08-01T11:27:13;17.90;99.90
24207;DHT22;12351;52.284;9.160;2023-08-01T11:30:02;18.10;99.90
24207;DHT22;12351;52.284;9.160;2023-08-01T11:32:54;18.20;99.90
24207;DHT22;12351;52.284;9.160;2023-08-01T11:35:44;18.40;99.90
24207;DHT22;12351;52.284;9.160;2023-08-01T11:38:34;18.50;99.90
24207;DHT22;12351;52.284;9.160;2023-08-01T11:41:26;18.60;99.90
24207;DHT22;12351;52.284;9.160;2023-08-01T11:44:17;18.50;99.90
24207;DHT22;12351;52.284;9.160;2023-08-01T11:50:01;18.30;99.90
24207;DHT22;12351;52.284;9.160;2023-08-01T11:52:52;18.30;99.90
24207;DHT22;12351;52.284;9.160;2023-08-01T11:55:42;18.20;99.90
24207;DHT22;12351;52.284;9.160;2023-08-01T11:58:32;18.00;99.90
24207;DHT22;12351;52.284;9.160;2023-08-01T12:01:24;18.20;99.90
24207;DHT22;12351;52.284;9.160;2023-08-01T12:07:12;18.00;99.90
24207;DHT22;12351;52.284;9.160;2023-08-01T12:09:56;18.10;99.90
24207;DHT22;12351;52.284;9.160;2023-08-01T12:12:45;18.10;99.90
24207;DHT22;12351;52.284;9.160;2023-08-01T12:15:35;18.20;99.90
24207;DHT22;12351;52.284;9.160;2023-08-01T12:18:28;18.30;99.90
24207;DHT22;12351;52.284;9.160;2023-08-01T12:21:17;18.20;99.90
24207;DHT22;12351;52.284;9.160;2023-08-01T12:24:10;18.30;99.90
24207;DHT22;12351;52.284;9.160;2023-08-01T12:26:59;18.30;99.90
24207;DHT22;12351;52.284;9.160;2023-08-01T12:29:51;18.30;99.90
24207;DHT22;12351;52.284;9.160;2023-08-01T12:32:41;18.40;99.90
24207;DHT22;12351;52.284;9.160;2023-08-01T12:35:33;18.40;99.90
24207;DHT22;12351;52.284;9.160;2023-08-01T12:38:26;18.40;99.90
24207;DHT22;12351;52.284;9.160;2023-08-01T12:41:15;18.40;99.90
24207;DHT22;12351;52.284;9.160;2023-08-01T12:44:08;18.40;99.90
24207;DHT22;12351;52.284;9.160;2023-08-01T12:46:57;18.40;99.90
24207;DHT22;12351;52.284;9.160;2023-08-01T12:49:49;18.40;99.90
24207;DHT22;12351;52.284;9.160;2023-08-01T12:52:42;18.50;99.90
24207;DHT22;12351;52.284;9.160;2023-08-01T12:55:32;18.40;99.90
24207;DHT22;12351;52.284;9.160;2023-08-01T12:58:23;18.50;99.90
24207;DHT22;12351;52.284;9.160;2023-08-01T13:01:13;18.40;99.90
24207;DHT22;12351;52.284;9.160;2023-08-01T13:04:02;18.20;99.90
24207;DHT22;12351;52.284;9.160;2023-08-01T13:06:54;18.10;99.90
24207;DHT22;12351;52.284;9.160;2023-08-01T13:09:43;18.20;99.90
24207;DHT22;12351;52.284;9.160;2023-08-01T13:12:32;18.20;99.90
24207;DHT22;12351;52.284;9.160;2023-08-01T13:15:24;18.20;99.90
24207;DHT22;12351;52.284;9.160;2023-08-01T13:18:14;18.10;99.90
24207;DHT22;12351;52.284;9.160;2023-08-01T13:21:05;18.30;99.90
24207;DHT22;12351;52.284;9.160;2023-08-01T13:23:55;18.40;99.90
24207;DHT22;12351;52.284;9.160;2023-08-01T13:26:45;18.40;99.90
24207;DHT22;12351;52.284;9.160;2023-08-01T13:29:35;18.60;99.90
24207;DHT22;12351;52.284;9.160;2023-08-01T13:32:26;18.60;99.90
24207;DHT22;12351;52.284;9.160;2023-08-01T13:35:19;18.60;99.90
24207;DHT22;12351;52.284;9.160;2023-08-01T13:38:08;18.60;99.90
24207;DHT22;12351;52.284;9.160;2023-08-01T13:41:01;18.60;99.90
24207;DHT22;12351;52.284;9.160;2023-08-01T13:43:52;18.50;99.90
24207;DHT22;12351;52.284;9.160;2023-08-01T13:46:44;18.30;99.90
24207;DHT22;12351;52.284;9.160;2023-08-01T13:49:34;18.10;99.90
24207;DHT22;12351;52.284;9.160;2023-08-01T13:52:21;18.10;99.90
24207;DHT22;12351;52.284;9.160;2023-08-01T13:55:11;18.20;99.90
24207;DHT22;12351;52.284;9.160;2023-08-01T13:58:03;17.90;99.90
24207;DHT22;12351;52.284;9.160;2023-08-01T14:00:54;18.00;99.90
24207;DHT22;12351;52.284;9.160;2023-08-01T14:03:40;18.30;99.90
24207;DHT22;12351;52.284;9.160;2023-08-01T14:06:35;18.40;99.90
24207;DHT22;12351;52.284;9.160;2023-08-01T14:09:25;18.50;99.90
24207;DHT22;12351;52.284;9.160;2023-08-01T14:12:15;18.70;99.90
24207;DHT22;12351;52.284;9.160;2023-08-01T14:15:07;18.90;99.90
24207;DHT22;12351;52.284;9.160;2023-08-01T14:17:58;18.90;99.90
24207;DHT22;12351;52.284;9.160;2023-08-01T14:20:48;19.00;99.90
24207;DHT22;12351;52.284;9.160;2023-08-01T14:23:37;19.20;99.90
24207;DHT22;12351;52.284;9.160;2023-08-01T14:26:28;19.30;99.90
24207;DHT22;12351;52.284;9.160;2023-08-01T14:29:20;19.30;99.90
24207;DHT22;12351;52.284;9.160;2023-08-01T14:32:08;19.50;99.90
24207;DHT22;12351;52.284;9.160;2023-08-01T14:35:00;19.60;99.90
24207;DHT22;12351;52.284;9.160;2023-08-01T14:37:52;19.70;99.90
24207;DHT22;12351;52.284;9.160;2023-08-01T14:40:41;19.80;99.90
24207;DHT22;12351;52.284;9.160;2023-08-01T14:43:32;19.80;99.90
24207;DHT22;12351;52.284;9.160;2023-08-01T14:46:20;19.90;99.90
24207;DHT22;12351;52.284;9.160;2023-08-01T14:49:11;19.90;99.90
24207;DHT22;12351;52.284;9.160;2023-08-01T14:52:04;19.90;99.90
24207;DHT22;12351;52.284;9.160;2023-08-01T14:54:56;20.00;99.90
24207;DHT22;12351;52.284;9.160;2023-08-01T14:57:44;20.30;99.90
24207;DHT22;12351;52.284;9.160;2023-08-01T15:03:19;20.30;99.90
24207;DHT22;12351;52.284;9.160;2023-08-01T15:06:07;20.40;99.90
24207;DHT22;12351;52.284;9.160;2023-08-01T15:08:54;20.30;99.90
24207;DHT22;12351;52.284;9.160;2023-08-01T15:11:41;20.40;99.90
24207;DHT22;12351;52.284;9.160;2023-08-01T15:14:28;20.50;99.90
24207;DHT22;12351;52.284;9.160;2023-08-01T15:17:15;20.50;99.90
24207;DHT22;12351;52.284;9.160;2023-08-01T15:20:02;20.50;99.90
24207;DHT22;12351;52.284;9.160;2023-08-01T15:22:49;20.50;99.90
24207;DHT22;12351;52.284;9.160;2023-08-01T15:25:36;20.60;99.90
24207;DHT22;12351;52.284;9.160;2023-08-01T15:28:24;20.70;99.90
24207;DHT22;12351;52.284;9.160;2023-08-01T15:31:11;20.90;99.90
24207;DHT22;12351;52.284;9.160;2023-08-01T15:33:58;20.90;99.90
24207;DHT22;12351;52.284;9.160;2023-08-01T15:36:46;21.10;99.90
24207;DHT22;12351;52.284;9.160;2023-08-01T15:39:33;21.20;99.90
24207;DHT22;12351;52.284;9.160;2023-08-01T15:42:20;21.10;99.90
24207;DHT22;12351;52.284;9.160;2023-08-01T15:45:07;21.00;99.90
24207;DHT22;12351;52.284;9.160;2023-08-01T15:47:54;21.00;99.90
24207;DHT22;12351;52.284;9.160;2023-08-01T15:50:42;21.00;99.90
24207;DHT22;12351;52.284;9.160;2023-08-01T15:53:29;21.00;99.90
24207;DHT22;12351;52.284;9.160;2023-08-01T15:56:16;21.10;99.90
24207;DHT22;12351;52.284;9.160;2023-08-01T15:59:04;21.00;99.90
24207;DHT22;12351;52.284;9.160;2023-08-01T16:01:51;21.10;99.90
24207;DHT22;12351;52.284;9.160;2023-08-01T16:04:37;21.00;99.90
24207;DHT22;12351;52.284;9.160;2023-08-01T16:07:24;20.90;99.90
24207;DHT22;12351;52.284;9.160;2023-08-01T16:10:11;20.90;99.90
24207;DHT22;12351;52.284;9.160;2023-08-01T16:12:58;20.90;99.90
24207;DHT22;12351;52.284;9.160;2023-08-01T16:15:45;20.90;99.90
24207;DHT22;12351;52.284;9.160;2023-08-01T16:18:31;20.90;99.90
24207;DHT22;12351;52.284;9.160;2023-08-01T16:21:18;20.90;99.90
24207;DHT22;12351;52.284;9.160;2023-08-01T16:24:05;20.90;99.90
24207;DHT22;12351;52.284;9.160;2023-08-01T16:26:52;21.10;99.90
24207;DHT22;12351;52.284;9.160;2023-08-01T16:29:39;21.20;99.90
24207;DHT22;12351;52.284;9.160;2023-08-01T16:32:26;21.30;99.90
24207;DHT22;12351;52.284;9.160;2023-08-01T16:35:13;21.30;99.90
24207;DHT22;12351;52.284;9.160;2023-08-01T16:38:00;21.30;99.90
24207;DHT22;12351;52.284;9.160;2023-08-01T16:40:47;21.40;99.90
24207;DHT22;12351;52.284;9.160;2023-08-01T16:43:34;21.50;99.90
24207;DHT22;12351;52.284;9.160;2023-08-01T16:46:21;21.60;99.90
24207;DHT22;12351;52.284;9.160;2023-08-01T16:49:08;21.50;99.90
24207;DHT22;12351;52.284;9.160;2023-08-01T16:51:54;21.50;99.90
24207;DHT22;12351;52.284;9.160;2023-08-01T16:54:41;21.50;99.90
24207;DHT22;12351;52.284;9.160;2023-08-01T16:57:28;21.60;99.90
24207;DHT22;12351;52.284;9.160;2023-08-01T17:00:15;21.60;99.90
24207;DHT22;12351;52.284;9.160;2023-08-01T17:03:02;21.50;99.90
24207;DHT22;12351;52.284;9.160;2023-08-01T17:05:48;21.50;99.90
24207;DHT22;12351;52.284;9.160;2023-08-01T17:08:35;21.60;99.90
24207;DHT22;12351;52.284;9.160;2023-08-01T17:11:23;21.50;99.90
24207;DHT22;12351;52.284;9.160;2023-08-01T17:14:09;21.50;99.90
24207;DHT22;12351;52.284;9.160;2023-08-01T17:16:57;21.30;99.90
24207;DHT22;12351;52.284;9.160;2023-08-01T17:19:48;21.30;99.90
24207;DHT22;12351;52.284;9.160;2023-08-01T17:22:39;21.20;99.90
24207;DHT22;12351;52.284;9.160;2023-08-01T17:25:30;21.10;99.90
24207;DHT22;12351;52.284;9.160;2023-08-01T17:28:20;21.10;99.90
24207;DHT22;12351;52.284;9.160;2023-08-01T17:31:11;20.90;99.90
24207;DHT22;12351;52.284;9.160;2023-08-01T17:34:00;20.90;99.90
24207;DHT22;12351;52.284;9.160;2023-08-01T17:36:51;20.80;99.90
24207;DHT22;12351;52.284;9.160;2023-08-01T17:39:43;20.70;99.90
24207;DHT22;12351;52.284;9.160;2023-08-01T17:42:32;20.70;99.90
24207;DHT22;12351;52.284;9.160;2023-08-01T17:45:24;20.60;99.90
24207;DHT22;12351;52.284;9.160;2023-08-01T17:48:16;20.60;99.90
24207;DHT22;12351;52.284;9.160;2023-08-01T17:51:05;20.60;99.90
24207;DHT22;12351;52.284;9.160;2023-08-01T17:53:54;20.40;99.90
24207;DHT22;12351;52.284;9.160;2023-08-01T17:56:44;20.40;99.90
24207;DHT22;12351;52.284;9.160;2023-08-01T17:59:34;20.40;99.90
24207;DHT22;12351;52.284;9.160;2023-08-01T18:02:27;20.40;99.90
24207;DHT22;12351;52.284;9.160;2023-08-01T18:05:18;20.30;99.90
24207;DHT22;12351;52.284;9.160;2023-08-01T18:08:07;20.20;99.90
24207;DHT22;12351;52.284;9.160;2023-08-01T18:10:57;20.20;99.90
24207;DHT22;12351;52.284;9.160;2023-08-01T18:13:51;20.10;99.90